Time;durP1;ratioP1;P1;durP2;ratioP2;P2;SDS_P1;SDS_P2;PMS_P1;PMS_P2;Temp;Humidity;BMP_temperature;BMP_pressure;BME280_temperature;BME280_humidity;BME280_pressure;Samples;Min_cycle;Max_cycle;Signal;HPM_P1;HPM_P2
2023/03/18 00:00:19;;;;;;;3.38;1.98;;;;;;;2.18;47.64;63944.38;4992722;28;20498;-79
2023/03/18 00:02:47;;;;;;;2.75;1.80;;;;;;;2.21;47.94;63947.19;4976197;28;20137;-80
2023/03/18 00:05:13;;;;;;;2.38;1.90;;;;;;;2.15;47.55;63941.63;4977627;28;20042;-81
2023/03/18 00:07:40;;;;;;;4.40;1.98;;;;;;;2.21;47.83;63947.75;4992447;28;20042;-80
2023/03/18 00:10:08;;;;;;;5.93;2.35;;;;;;;2.21;47.72;63947.19;4959936;28;20486;-79
2023/03/18 00:12:37;;;;;;;4.95;2.05;;;;;;;2.15;48.13;63941.06;4975909;28;20042;-80
2023/03/18 00:15:05;;;;;;;5.03;2.10;;;;;;;2.16;48.34;63942.72;4977523;28;20104;-80
2023/03/18 00:17:31;;;;;;;2.97;1.80;;;;;;;2.22;48.35;63948.31;4976345;28;20109;-80
2023/03/18 00:20:04;;;;;;;6.10;2.22;;;;;;;2.17;48.24;63943.84;4992257;28;20042;-80
2023/03/18 00:22:34;;;;;;;5.43;2.15;;;;;;;2.16;48.80;63942.16;4976267;28;20054;-80
2023/03/18 00:25:01;;;;;;;6.00;2.25;;;;;;;2.17;49.10;63943.28;4977152;28;20066;-80
2023/03/18 00:27:27;;;;;;;3.85;1.95;;;;;;;2.09;48.87;63934.91;4975740;28;20042;-80
2023/03/18 00:29:53;;;;;;;4.03;2.40;;;;;;;2.07;49.07;63932.69;4976929;28;20510;-80
2023/03/18 00:32:20;;;;;;;4.53;2.20;;;;;;;2.07;49.39;63932.13;4975620;28;20049;-81
2023/03/18 00:34:48;;;;;;;3.92;2.10;;;;;;;2.06;49.12;63931.56;4975667;28;20399;-80
2023/03/18 00:37:18;;;;;;;4.28;2.38;;;;;;;2.08;48.90;63933.25;4975597;28;20042;-80
2023/03/18 00:39:45;;;;;;;4.45;2.08;;;;;;;2.06;48.83;63931.56;4976547;28;20548;-81
2023/03/18 00:42:12;;;;;;;4.68;2.05;;;;;;;2.02;49.12;63926.53;4975963;28;20046;-80
2023/03/18 00:44:38;;;;;;;6.45;2.50;;;;;;;1.91;49.53;63915.38;4959418;28;20050;-80
2023/03/18 00:47:05;;;;;;;2.55;1.95;;;;;;;1.79;49.57;63901.44;4976635;28;20049;-80
2023/03/18 00:49:33;;;;;;;5.07;2.13;;;;;;;1.85;49.77;63908.69;4959728;28;20113;-80
2023/03/18 00:51:59;;;;;;;5.00;2.30;;;;;;;1.80;49.71;63902.56;4975264;28;20043;-80
2023/03/18 00:54:25;;;;;;;4.30;2.20;;;;;;;1.81;49.93;63904.25;4991552;28;20043;-81
2023/03/18 00:56:52;;;;;;;5.13;2.28;;;;;;;1.88;49.94;63911.47;4975457;28;20428;-81
2023/03/18 00:59:18;;;;;;;5.70;3.03;;;;;;;1.79;50.55;63901.44;4984155;28;20130;-81
2023/03/18 01:01:45;;;;;;;5.15;2.35;;;;;;;1.72;50.88;63894.19;4988968;28;20046;-80
2023/03/18 01:04:11;;;;;;;3.85;2.10;;;;;;;1.70;50.85;63892.53;4975897;28;20525;-79
2023/03/18 01:06:38;;;;;;;4.53;2.38;;;;;;;1.70;50.73;63892.53;4975306;28;20046;-80
2023/03/18 01:09:05;;;;;;;4.63;2.72;;;;;;;1.59;50.97;63880.25;4975171;28;20078;-79
2023/03/18 01:11:32;;;;;;;4.43;2.38;;;;;;;1.64;50.85;63885.81;4975626;28;20047;-80
2023/03/18 01:13:58;;;;;;;4.20;2.35;;;;;;;1.66;50.61;63888.06;4975895;28;20039;-81
2023/03/18 01:16:24;;;;;;;10.32;3.28;;;;;;;1.69;50.68;63907.09;4959243;28;20042;-80
2023/03/18 01:18:51;;;;;;;6.45;3.63;;;;;;;1.57;51.14;63878.00;4976338;28;20524;-80
2023/03/18 01:21:17;;;;;;;5.72;2.60;;;;;;;1.54;51.13;63874.66;4958576;28;20142;-79
2023/03/18 01:23:50;;;;;;;9.50;3.80;;;;;;;1.45;51.67;63864.63;4959715;28;20078;-81
2023/03/18 01:26:16;;;;;;;6.85;2.67;;;;;;;1.30;51.99;63847.91;4958913;28;20050;-80
2023/03/18 01:28:43;;;;;;;7.22;3.20;;;;;;;1.31;51.75;63849.56;4991275;28;20039;-80
2023/03/18 01:31:11;;;;;;;6.65;3.08;;;;;;;1.33;51.64;63851.25;4974592;28;20578;-80
2023/03/18 01:33:39;;;;;;;5.15;2.80;;;;;;;1.39;51.29;63858.50;4942622;28;20497;-80
2023/03/18 01:36:05;;;;;;;7.90;3.33;;;;;;;1.39;51.40;63858.50;4990730;28;20422;-81
2023/03/18 01:38:32;;;;;;;8.75;3.22;;;;;;;1.43;51.41;63862.41;4974610;28;20074;-81
2023/03/18 01:41:07;;;;;;;6.38;3.70;;;;;;;1.46;51.86;63865.75;4958620;28;20545;-80
2023/03/18 01:43:35;;;;;;;8.63;3.30;;;;;;;1.41;51.62;63860.19;4942389;28;20045;-80
2023/03/18 01:46:35;;;;;;;15.70;3.53;;;;;;;1.43;51.35;63862.41;4958298;28;20405;-82
2023/03/18 01:49:06;;;;;;;8.27;3.20;;;;;;;1.37;51.51;63856.28;4958375;28;20043;-80
2023/03/18 01:51:32;;;;;;;8.52;3.75;;;;;;;1.35;51.26;63853.47;4958448;28;20045;-80
2023/03/18 01:54:02;;;;;;;8.55;3.40;;;;;;;1.31;51.33;63849.03;4975250;28;20462;-80
2023/03/18 01:56:28;;;;;;;10.88;3.60;;;;;;;1.33;51.32;63851.25;4958039;28;20047;-82
2023/03/18 01:58:56;;;;;;;7.40;4.13;;;;;;;1.41;51.44;63860.19;4974188;28;20512;-80
2023/03/18 02:01:46;;;;;;;8.43;3.60;;;;;;;1.39;51.31;63857.94;4974071;28;20039;-80
2023/03/18 02:04:13;;;;;;;7.55;3.67;;;;;;;1.34;51.63;63852.38;4974353;28;20042;-81
2023/03/18 02:06:41;;;;;;;9.20;3.13;;;;;;;1.30;52.40;63848.47;4990447;28;20058;-79
2023/03/18 02:09:08;;;;;;;10.63;3.47;;;;;;;1.31;51.97;63849.03;4990105;28;20502;-81
2023/03/18 02:11:41;;;;;;;8.98;3.40;;;;;;;1.35;51.77;63853.47;4973359;28;20047;-79
2023/03/18 02:14:12;;;;;;;8.10;3.22;;;;;;;1.33;52.12;63866.91;4958357;28;20097;-81
2023/03/18 02:16:49;;;;;;;;;;;;;;;1.38;51.58;63857.38;4990824;28;20046;-79
2023/03/18 02:19:35;;;;;;;7.55;3.08;;;;;;;1.44;51.68;63863.53;4957695;28;19922;-81
2023/03/18 02:22:14;;;;;;;6.68;3.30;;;;;;;1.45;51.31;63865.19;4957293;28;20055;-80
2023/03/18 02:24:54;;;;;;;12.43;3.70;;;;;;;1.49;51.46;63869.09;4973840;28;20043;-79
2023/03/18 02:27:27;;;;;;;5.72;3.03;;;;;;;1.47;51.88;63866.88;4973708;28;20043;-80
2023/03/18 02:29:57;;;;;;;6.20;3.13;;;;;;;1.51;51.33;63870.78;4941668;28;20046;-80
2023/03/18 02:32:27;;;;;;;6.78;3.20;;;;;;;1.53;51.90;63873.00;4957032;28;20557;-83
2023/03/18 02:34:55;;;;;;;10.85;3.38;;;;;;;1.56;51.73;63876.91;4957808;28;20163;-81
2023/03/18 02:37:21;;;;;;;6.25;2.90;;;;;;;1.60;52.31;63881.38;4973805;28;20050;-82
2023/03/18 02:39:48;;;;;;;6.18;3.35;;;;;;;1.64;52.28;63885.28;4957550;28;20573;-83
2023/03/18 02:42:15;;;;;;;8.15;2.92;;;;;;;1.66;52.48;63903.72;4974478;28;20074;-79
2023/03/18 02:44:48;;;;;;;9.55;3.70;;;;;;;1.69;52.38;63891.41;4929134;28;20045;-81
2023/03/18 02:47:42;;;;;;;6.85;3.40;;;;;;;1.74;52.45;63895.88;4971796;28;20039;-80
2023/03/18 02:50:09;;;;;;;7.85;3.58;;;;;;;1.81;52.38;63903.69;4973798;28;20038;-81
2023/03/18 02:52:35;;;;;;;6.20;3.20;;;;;;;1.81;52.25;63903.69;4941278;28;20513;-81
2023/03/18 02:55:01;;;;;;;6.25;2.50;;;;;;;1.86;52.43;63909.25;4989823;28;20050;-80
2023/03/18 02:57:29;;;;;;;5.47;2.90;;;;;;;1.86;52.38;63909.25;4989844;28;20133;-82
2023/03/18 02:59:56;;;;;;;6.43;3.00;;;;;;;1.91;52.89;63914.81;4973606;28;20494;-81
2023/03/18 03:02:22;;;;;;;8.63;3.10;;;;;;;1.92;53.12;63916.50;4957233;28;20089;-78
2023/03/18 03:04:48;;;;;;;5.13;2.72;;;;;;;2.01;52.91;63941.66;4973011;28;20042;-81
2023/03/18 03:07:16;;;;;;;5.03;2.50;;;;;;;2.05;53.20;63929.91;4972929;28;20070;-80
2023/03/18 03:09:47;;;;;;;7.47;2.67;;;;;;;2.14;53.12;63939.94;4989253;28;20053;-80
2023/03/18 03:12:13;;;;;;;6.38;2.58;;;;;;;2.16;53.93;63942.72;4989674;28;20039;-82
2023/03/18 03:14:44;;;;;;;14.45;2.30;;;;;;;2.28;53.66;63955.00;4973818;28;20046;-82
2023/03/18 03:17:11;;;;;;;7.43;3.00;;;;;;;2.35;53.43;63963.38;4957360;28;20051;-80
2023/03/18 03:19:37;;;;;;;3.60;2.42;;;;;;;2.43;53.35;63971.75;4988802;28;20059;-80
2023/03/18 03:22:04;;;;;;;6.20;2.72;;;;;;;2.56;53.23;63986.25;4972293;28;20120;-81
2023/03/18 03:24:30;;;;;;;6.28;3.03;;;;;;;2.64;53.34;63995.19;4972153;28;20050;-81
2023/03/18 03:26:55;;;;;;;8.32;3.17;;;;;;;2.76;52.97;64007.47;4973408;28;20038;-80
2023/03/18 03:29:21;;;;;;;9.80;3.50;;;;;;;2.83;52.86;64015.28;4973774;28;20046;-79
2023/03/18 03:31:48;;;;;;;10.38;3.28;;;;;;;2.78;52.81;64010.25;4972727;28;20042;-81
2023/03/18 03:34:14;;;;;;;12.88;3.72;;;;;;;2.87;52.58;64019.75;4956580;28;20038;-79
2023/03/18 03:36:41;;;;;;;7.55;3.17;;;;;;;2.89;52.65;64021.97;4956556;28;20047;-79
2023/03/18 03:39:07;;;;;;;11.13;3.30;;;;;;;2.92;52.71;64025.34;4956558;28;20138;-80
2023/03/18 03:41:34;;;;;;;14.73;4.20;;;;;;;2.90;52.37;64023.66;4972505;28;20062;-83
2023/03/18 03:44:00;;;;;;;9.93;3.53;;;;;;;2.93;52.42;64026.44;4972457;28;20035;-80
2023/03/18 03:46:26;;;;;;;6.88;3.10;;;;;;;2.98;52.76;64032.03;4971924;28;20038;-79
2023/03/18 03:48:52;;;;;;;9.23;2.88;;;;;;;3.08;52.36;64043.19;4972693;28;20051;-79
2023/03/18 03:51:18;;;;;;;5.55;2.75;;;;;;;3.10;52.24;64044.88;4988645;28;20129;-79
2023/03/18 03:53:45;;;;;;;7.72;2.35;;;;;;;3.13;52.43;64048.25;4972829;28;20047;-80
2023/03/18 03:56:12;;;;;;;4.00;2.40;;;;;;;3.16;52.10;64052.16;4972702;28;20094;-80
2023/03/18 03:58:38;;;;;;;5.43;3.13;;;;;;;3.31;51.96;64068.34;4974094;28;20564;-79
2023/03/18 04:01:05;;;;;;;4.47;2.63;;;;;;;3.31;51.63;64068.34;4969549;28;20498;-79
2023/03/18 04:03:32;;;;;;;5.07;2.33;;;;;;;3.30;51.68;64066.66;4982765;28;20042;-79
2023/03/18 04:05:58;;;;;;;3.95;2.50;;;;;;;3.34;51.93;64071.13;4988375;28;20042;-79
2023/03/18 04:08:27;;;;;;;9.10;2.58;;;;;;;3.38;51.90;64076.16;4971976;28;20534;-77
2023/03/18 04:10:53;;;;;;;5.28;3.08;;;;;;;3.52;51.51;64091.25;4971922;28;20137;-79
2023/03/18 04:13:19;;;;;;;5.20;2.50;;;;;;;3.61;51.38;64101.31;4971700;28;20046;-76
2023/03/18 04:15:46;;;;;;;6.35;3.03;;;;;;;3.73;51.22;64113.63;4971376;28;20043;-78
2023/03/18 04:18:16;;;;;;;3.60;2.55;;;;;;;3.67;51.21;64106.91;4972062;28;20078;-77
2023/03/18 04:20:43;;;;;;;7.45;2.35;;;;;;;3.70;51.30;64110.25;4971789;28;20074;-80
2023/03/18 04:23:38;;;;;;;4.40;2.00;;;;;;;3.76;51.33;64117.53;4956020;28;20190;-78
2023/03/18 04:26:04;;;;;;;5.20;2.92;;;;;;;3.86;51.12;64128.69;4971983;28;20078;-80
2023/03/18 04:28:31;;;;;;;5.78;2.50;;;;;;;3.92;51.25;64134.84;4955126;28;20054;-79
2023/03/18 04:30:58;;;;;;;3.75;2.40;;;;;;;3.90;51.37;64132.59;4969186;28;20043;-80
2023/03/18 04:33:24;;;;;;;6.65;2.38;;;;;;;3.95;50.94;64138.22;4972977;28;20047;-79
2023/03/18 04:35:53;;;;;;;3.03;2.30;;;;;;;3.98;50.79;64141.56;4974712;28;20057;-81
2023/03/18 04:38:19;;;;;;;5.13;2.15;;;;;;;4.17;50.62;64161.69;4975273;28;20109;-78
2023/03/18 04:40:48;;;;;;;4.03;2.13;;;;;;;4.25;50.72;64171.19;4974478;28;20038;-80
2023/03/18 04:43:14;;;;;;;4.40;2.20;;;;;;;4.27;50.20;64172.88;4971472;28;20059;-80
2023/03/18 04:45:40;;;;;;;6.22;2.45;;;;;;;4.26;50.20;64171.75;4972721;28;20081;-79
2023/03/18 04:48:06;;;;;;;4.22;2.55;;;;;;;4.24;50.45;64169.50;4975514;28;20120;-79
2023/03/18 04:50:37;;;;;;;4.43;2.88;;;;;;;4.35;50.64;64181.81;4958843;28;20058;-78
2023/03/18 04:53:06;;;;;;;14.75;3.03;;;;;;;4.56;50.13;64204.75;4958446;28;20049;-80
2023/03/18 04:55:32;;;;;;;5.10;2.47;;;;;;;4.55;50.20;64204.19;4959173;28;20086;-80
2023/03/18 04:58:01;;;;;;;5.20;2.30;;;;;;;4.68;49.88;64218.19;4976040;28;20478;-82
2023/03/18 05:00:30;;;;;;;7.43;3.67;;;;;;;4.86;49.70;64237.75;4975979;28;20414;-80
2023/03/18 05:03:10;;;;;;;3.50;2.17;;;;;;;4.94;49.35;64246.16;4974313;28;20529;-80
2023/03/18 05:05:36;;;;;;;2.58;2.08;;;;;;;5.08;49.55;64262.38;4955205;28;20043;-79
2023/03/18 05:08:02;;;;;;;5.03;2.08;;;;;;;5.19;49.34;64273.56;4939181;29;20043;-81
2023/03/18 05:10:28;;;;;;;3.60;2.50;;;;;;;5.44;48.81;64301.56;4939394;29;20068;-79
2023/03/18 05:12:54;;;;;;;4.10;2.42;;;;;;;5.79;48.28;64339.63;4956690;28;20183;-80
2023/03/18 05:15:27;;;;;;;4.82;2.40;;;;;;;5.84;48.03;64345.25;4956216;29;20047;-80
2023/03/18 05:17:56;;;;;;;6.95;2.00;;;;;;;5.85;47.90;64346.34;4955616;29;20077;-81
2023/03/18 05:20:23;;;;;;;6.55;2.70;;;;;;;5.96;47.95;64358.69;4940022;29;20050;-80
2023/03/18 05:22:49;;;;;;;4.43;2.22;;;;;;;6.19;47.99;64383.34;4942158;29;20449;-80
2023/03/18 05:25:26;;;;;;;3.45;2.00;;;;;;;6.31;47.29;64396.78;4939129;29;20043;-81
2023/03/18 05:27:53;;;;;;;10.48;3.10;;;;;;;6.38;47.59;64404.63;4956607;28;20146;-79
2023/03/18 05:30:30;;;;;;;3.95;2.33;;;;;;;6.45;47.11;64412.50;4955542;29;20046;-80
2023/03/18 05:32:57;;;;;;;3.67;2.67;;;;;;;6.55;46.93;64423.69;4939954;29;20051;-81
2023/03/18 05:35:38;;;;;;;3.92;2.47;;;;;;;6.70;46.49;64439.41;4955431;29;20047;-81
2023/03/18 05:38:04;;;;;;;3.40;2.42;;;;;;;7.03;46.45;64475.81;4956080;28;20055;-81
2023/03/18 05:40:33;;;;;;;7.10;3.35;;;;;;;7.32;45.99;64507.81;4923787;29;20075;-82
2023/03/18 05:43:25;;;;;;;5.78;2.53;;;;;;;7.63;45.48;64541.44;4930822;28;20418;-82
2023/03/18 05:45:58;;;;;;;4.70;2.60;;;;;;;7.82;45.15;64562.78;4958721;28;20548;-80
2023/03/18 05:48:41;;;;;;;4.85;2.63;;;;;;;8.04;44.36;64586.91;4958355;28;20046;-79
2023/03/18 05:51:08;;;;;;;3.50;2.60;;;;;;;7.99;44.08;64581.31;4958421;28;20039;-81
2023/03/18 05:53:36;;;;;;;6.88;2.40;;;;;;;8.16;43.95;64599.81;4974212;28;20078;-81
2023/03/18 05:56:15;;;;;;;5.57;2.72;;;;;;;8.11;44.09;64594.22;4958631;28;20043;-83
2023/03/18 05:58:43;;;;;;;6.38;2.63;;;;;;;7.85;44.30;64566.16;4958658;28;20053;-80
2023/03/18 06:01:32;;;;;;;5.85;2.40;;;;;;;7.75;44.37;64554.94;4974979;28;20091;-81
2023/03/18 06:03:59;;;;;;;4.47;2.10;;;;;;;7.50;44.47;64528.00;4974954;28;20047;-81
2023/03/18 06:06:26;;;;;;;4.22;2.47;;;;;;;7.36;45.00;64512.28;4957967;28;20050;-80
2023/03/18 06:08:55;;;;;;;7.80;3.10;;;;;;;7.49;44.94;64526.88;4990118;28;20137;-82
2023/03/18 06:11:22;;;;;;;4.03;2.53;;;;;;;7.62;44.66;64540.34;4973933;28;20053;-80
2023/03/18 06:13:49;;;;;;;15.40;2.90;;;;;;;7.84;44.95;64564.47;4958835;28;20282;-81
2023/03/18 06:16:15;;;;;;;6.35;2.90;;;;;;;7.87;44.52;64568.41;4957837;28;20045;-80
2023/03/18 06:18:43;;;;;;;3.58;2.30;;;;;;;8.21;44.32;64605.44;4957699;28;20506;-82
2023/03/18 06:21:13;;;;;;;16.33;3.03;;;;;;;8.48;44.00;64635.22;4973782;28;20051;-79
2023/03/18 06:23:39;;;;;;;7.45;3.63;;;;;;;8.72;43.58;64661.59;4973826;28;20491;-80
2023/03/18 06:26:07;;;;;;;11.23;4.28;;;;;;;9.08;43.25;64700.94;4973671;28;20043;-81
2023/03/18 06:28:38;;;;;;;6.07;3.92;;;;;;;9.17;42.95;64711.06;4957629;28;20045;-80
2023/03/18 06:31:09;;;;;;;10.10;3.45;;;;;;;9.48;42.63;64745.34;4989566;28;20043;-82
2023/03/18 06:33:37;;;;;;;8.73;4.38;;;;;;;9.63;42.08;64761.66;4959174;28;20525;-80
2023/03/18 06:36:05;;;;;;;6.65;3.65;;;;;;;9.69;41.69;64768.94;4974270;28;20125;-82
2023/03/18 06:38:31;;;;;;;6.80;3.10;;;;;;;9.78;41.60;64778.50;4957415;28;20050;-80
2023/03/18 06:40:58;;;;;;;4.63;2.80;;;;;;;10.00;41.37;64802.13;4957305;28;20403;-80
2023/03/18 06:43:25;;;;;;;3.30;2.28;;;;;;;10.11;41.02;64814.50;4966267;28;20100;-78
2023/03/18 06:45:52;;;;;;;3.67;2.65;;;;;;;10.29;40.97;64834.19;4967268;28;20178;-80
2023/03/18 06:48:19;;;;;;;5.70;2.95;;;;;;;10.71;40.53;64880.91;4957221;28;20043;-80
2023/03/18 06:50:46;;;;;;;5.15;2.25;;;;;;;10.40;40.41;64847.13;4957218;28;20410;-79
2023/03/18 06:53:19;;;;;;;3.55;2.70;;;;;;;10.10;40.67;64813.38;4958197;28;20066;-80
2023/03/18 06:55:47;;;;;;;6.82;2.60;;;;;;;9.86;40.98;64786.94;4956862;28;20062;-80
2023/03/18 06:58:16;;;;;;;5.55;3.10;;;;;;;9.66;40.90;64765.00;4973346;28;20128;-80
2023/03/18 07:00:54;;;;;;;5.45;2.50;;;;;;;9.57;41.43;64754.91;4964494;28;20042;-79
2023/03/18 07:03:25;;;;;;;7.18;3.08;;;;;;;9.68;41.74;64767.81;4989577;28;20043;-80
2023/03/18 07:05:52;;;;;;;5.32;3.42;;;;;;;9.73;41.34;64772.88;4973292;28;20053;-85
2023/03/18 07:08:18;;;;;;;5.18;3.13;;;;;;;9.30;41.72;64725.09;4956896;28;20046;-81
2023/03/18 07:10:43;;;;;;;4.68;2.40;;;;;;;9.33;41.84;64729.03;4972649;28;20054;-82
2023/03/18 07:13:14;;;;;;;6.93;2.90;;;;;;;9.33;42.04;64729.03;4956785;28;20142;-78
2023/03/18 07:15:41;;;;;;;4.43;3.20;;;;;;;9.44;42.30;64740.84;4972870;28;20047;-79
2023/03/18 07:18:08;;;;;;;12.82;3.38;;;;;;;9.86;41.96;64787.50;4989085;28;20066;-79
2023/03/18 07:20:35;;;;;;;5.72;3.38;;;;;;;10.22;41.72;64826.88;4972733;28;20039;-80
2023/03/18 07:23:02;;;;;;;5.05;2.78;;;;;;;10.47;40.68;64854.47;4956400;28;20062;-81
2023/03/18 07:25:30;;;;;;;4.70;2.58;;;;;;;10.74;40.48;64884.28;4972509;28;20043;-82
2023/03/18 07:27:56;;;;;;;5.00;2.55;;;;;;;10.62;40.12;64871.34;4972974;28;20117;-81
2023/03/18 07:30:23;;;;;;;4.65;2.28;;;;;;;10.66;40.18;64875.28;4956540;28;20135;-80
2023/03/18 07:32:49;;;;;;;3.67;2.47;;;;;;;10.79;40.09;64889.91;4972595;28;20471;-80
2023/03/18 07:35:15;;;;;;;7.28;2.55;;;;;;;11.12;39.90;64925.94;4972519;28;20169;-84
2023/03/18 07:37:41;;;;;;;6.28;2.88;;;;;;;11.20;39.49;64934.94;4940476;28;20504;-81
2023/03/18 07:40:09;;;;;;;14.00;5.53;;;;;;;11.14;39.95;64928.19;4956439;28;20043;-80
2023/03/18 07:42:35;;;;;;;8.43;2.72;;;;;;;11.21;39.76;64935.50;4956268;28;20051;-83
2023/03/18 07:45:01;;;;;;;6.95;2.83;;;;;;;10.66;41.03;64875.28;4956369;28;20089;-79
2023/03/18 07:47:26;;;;;;;9.55;2.60;;;;;;;10.36;41.38;64842.06;4972963;28;20133;-80
2023/03/18 07:49:52;;;;;;;6.75;2.38;;;;;;;9.88;41.74;64789.75;4972781;28;20046;-80
2023/03/18 07:52:18;;;;;;;5.13;2.60;;;;;;;9.75;42.23;64775.13;4972537;28;20654;-80
2023/03/18 07:54:44;;;;;;;5.85;2.63;;;;;;;9.59;42.37;64757.72;4971869;28;20050;-81
2023/03/18 07:57:10;;;;;;;8.85;2.58;;;;;;;9.91;42.10;64793.13;4987740;28;20675;-81
2023/03/18 07:59:36;;;;;;;5.35;2.58;;;;;;;9.44;42.72;64741.41;4957041;28;20445;-79
2023/03/18 08:02:03;;;;;;;6.43;2.85;;;;;;;9.30;43.42;64725.66;4973446;28;20137;-81
2023/03/18 08:04:32;;;;;;;11.43;3.35;;;;;;;9.85;43.11;64786.38;4956350;28;20047;-78
2023/03/18 08:06:59;;;;;;;3.50;2.70;;;;;;;10.19;42.53;64823.47;4956420;28;20046;-85
2023/03/18 08:09:26;;;;;;;7.47;3.00;;;;;;;9.88;41.77;64789.75;4958382;28;20117;-80
2023/03/18 08:11:53;;;;;;;4.63;2.63;;;;;;;9.52;42.67;64749.28;4976725;28;20502;-82
2023/03/18 08:14:19;;;;;;;8.02;2.53;;;;;;;9.33;43.22;64729.03;4975824;28;20046;-79
2023/03/18 08:16:44;;;;;;;7.35;2.83;;;;;;;9.00;44.07;64692.50;4975699;28;20046;-86
2023/03/18 08:19:10;;;;;;;8.20;3.33;;;;;;;9.25;43.60;64720.03;4975810;28;20057;-83
2023/03/18 08:21:37;;;;;;;9.80;3.05;;;;;;;9.12;44.01;64705.44;4976087;28;20054;-79
2023/03/18 08:24:03;;;;;;;8.52;2.85;;;;;;;8.90;44.77;64681.84;4974856;28;20089;-80
2023/03/18 08:26:29;;;;;;;15.00;3.22;;;;;;;8.62;45.24;64650.94;4959543;28;20054;-83
2023/03/18 08:28:55;;;;;;;7.93;3.10;;;;;;;8.65;45.73;64653.75;4991462;28;20046;-80
2023/03/18 08:31:21;;;;;;;5.95;3.63;;;;;;;8.55;45.97;64643.09;4975930;28;20053;-83
2023/03/18 08:33:48;;;;;;;8.30;3.15;;;;;;;8.95;45.45;64687.47;4974945;28;20043;-83
2023/03/18 08:36:15;;;;;;;8.57;3.53;;;;;;;9.02;45.02;64694.19;4975811;28;20410;-81
2023/03/18 08:38:40;;;;;;;10.07;3.70;;;;;;;9.54;44.43;64752.06;4974035;28;20051;-81
2023/03/18 08:41:06;;;;;;;7.22;3.35;;;;;;;9.71;44.45;64771.19;4975844;28;20042;-82
2023/03/18 08:43:32;;;;;;;11.32;3.92;;;;;;;9.84;44.12;64785.25;4958586;28;20094;-82
2023/03/18 08:45:58;;;;;;;9.20;3.97;;;;;;;10.08;43.57;64811.69;4976100;28;20047;-82
2023/03/18 08:48:24;;;;;;;10.07;3.92;;;;;;;10.62;43.52;64870.78;4976254;28;20074;-83
2023/03/18 08:50:51;;;;;;;12.80;4.10;;;;;;;11.08;42.90;64921.41;4975243;28;20038;-84
2023/03/18 08:53:18;;;;;;;6.78;3.35;;;;;;;11.23;42.22;64938.31;4974260;28;20051;-81
2023/03/18 08:55:45;;;;;;;8.27;3.53;;;;;;;11.15;42.07;64929.31;4974688;28;20042;-81
2023/03/18 08:58:11;;;;;;;5.93;3.40;;;;;;;11.06;42.59;64919.19;4975032;28;20085;-81
2023/03/18 09:00:39;;;;;;;6.28;3.58;;;;;;;10.98;42.84;64910.16;4976372;28;20077;-80
2023/03/18 09:03:05;;;;;;;9.55;3.17;;;;;;;10.63;43.16;64871.91;4978703;28;20049;-83
2023/03/18 09:05:31;;;;;;;7.97;3.63;;;;;;;10.52;43.57;64859.50;4975819;28;20046;-86
2023/03/18 09:07:58;;;;;;;19.52;4.57;;;;;;;10.53;44.08;64861.22;4990237;28;20050;-80
2023/03/18 09:10:24;;;;;;;6.93;3.20;;;;;;;10.59;44.00;64867.41;4975701;28;20038;-80
2023/03/18 09:12:50;;;;;;;14.40;3.40;;;;;;;10.22;44.77;64826.88;4975219;28;20043;-83
2023/03/18 09:15:21;;;;;;;9.50;3.35;;;;;;;10.18;46.27;64822.38;4974775;28;20531;-81
2023/03/18 09:17:47;;;;;;;7.45;3.22;;;;;;;10.25;45.57;64829.69;4958862;28;20414;-81
2023/03/18 09:20:15;;;;;;;6.50;3.00;;;;;;;10.17;45.77;64821.25;4974210;28;20418;-82
2023/03/18 09:22:43;;;;;;;7.63;3.28;;;;;;;10.29;46.01;64834.75;4973649;28;20061;-82
2023/03/18 09:25:09;;;;;;;9.60;3.97;;;;;;;10.31;45.74;64837.03;4974348;28;20039;-84
2023/03/18 09:27:36;;;;;;;6.07;3.60;;;;;;;10.05;46.00;64807.75;4958291;28;20493;-83
2023/03/18 09:30:02;;;;;;;8.85;3.67;;;;;;;10.08;45.85;64811.09;4990588;28;20065;-85
2023/03/18 09:32:29;;;;;;;11.38;3.92;;;;;;;9.75;46.64;64775.13;4975788;28;20047;-81
2023/03/18 09:34:55;;;;;;;8.80;3.25;;;;;;;9.72;47.94;64771.75;4974237;28;20106;-82
2023/03/18 09:37:22;;;;;;;7.05;3.58;;;;;;;9.88;46.21;64789.19;4973026;28;20050;-80
2023/03/18 09:39:47;;;;;;;6.88;3.80;;;;;;;9.64;47.01;64762.78;4975691;28;20048;-80
2023/03/18 09:42:24;;;;;;;8.43;3.85;;;;;;;9.47;47.48;64744.75;4990119;28;20049;-80
2023/03/18 09:44:57;;;;;;;11.25;3.88;;;;;;;9.54;47.11;64751.53;4973860;28;20503;-81
2023/03/18 09:47:29;;;;;;;10.25;4.47;;;;;;;9.06;48.35;64699.25;4958043;28;20046;-82
2023/03/18 09:49:58;;;;;;;7.68;3.60;;;;;;;8.83;49.26;64673.97;4973678;28;20043;-80
2023/03/18 09:52:52;;;;;;;9.23;4.18;;;;;;;8.60;50.41;64648.13;4957644;28;20068;-81
2023/03/18 09:55:48;;;;;;;12.82;4.60;;;;;;;8.41;51.65;64627.34;4957701;28;20486;-80
2023/03/18 09:58:47;;;;;;;13.68;5.32;;;;;;;8.15;52.53;64599.25;4973609;28;20105;-80
2023/03/18 10:01:14;;;;;;;14.63;4.90;;;;;;;8.11;52.91;64594.22;4933704;29;20050;-80
2023/03/18 10:03:53;;;;;;;13.73;6.53;;;;;;;8.14;52.84;64597.59;4986715;28;20058;-79
2023/03/18 10:06:22;;;;;;;11.30;6.50;;;;;;;7.76;54.57;64556.06;4956991;28;20042;-83
2023/03/18 10:09:07;;;;;;;11.75;6.93;;;;;;;7.51;55.63;64529.13;4973449;28;20086;-79
2023/03/18 10:11:46;;;;;;;13.30;7.20;;;;;;;7.44;56.01;64520.69;4941655;28;20532;-80
2023/03/18 10:14:56;;;;;;;17.10;7.78;;;;;;;7.34;56.73;64510.06;4973672;28;20124;-79
2023/03/18 10:17:29;;;;;;;15.35;7.85;;;;;;;7.33;56.64;64508.34;4957431;28;20046;-81
2023/03/18 10:19:58;;;;;;;18.40;9.05;;;;;;;7.37;56.98;64512.84;4989623;28;20094;-80
2023/03/18 10:22:54;;;;;;;11.95;7.80;;;;;;;7.21;57.26;64495.47;4956227;28;20422;-80
2023/03/18 10:25:58;;;;;;;15.35;8.85;;;;;;;7.25;57.69;64499.94;4957020;28;20199;-81
2023/03/18 10:28:55;;;;;;;15.23;8.25;;;;;;;7.33;57.39;64508.91;4956554;28;20059;-80
2023/03/18 10:31:21;;;;;;;18.60;9.18;;;;;;;7.09;57.71;64482.00;4956290;28;20070;-81
2023/03/18 10:33:57;;;;;;;14.10;8.40;;;;;;;6.93;58.84;64464.63;4956912;28;20592;-79
2023/03/18 10:36:48;;;;;;;10.35;8.10;;;;;;;6.91;59.08;64462.94;4972131;28;20477;-81
2023/03/18 10:39:17;;;;;;;12.73;7.85;;;;;;;6.92;58.92;64464.06;4972637;28;20073;-78
2023/03/18 10:41:48;;;;;;;12.30;8.57;;;;;;;6.99;58.79;64471.91;4974482;28;20438;-80
2023/03/18 10:44:29;;;;;;;14.05;8.55;;;;;;;7.03;59.11;64476.41;4957102;28;20399;-82
2023/03/18 10:47:02;;;;;;;12.25;9.30;;;;;;;6.62;60.02;64430.41;4956693;28;20450;-78
2023/03/18 10:49:36;;;;;;;13.68;9.27;;;;;;;6.24;61.18;64388.94;4940597;28;20043;-80
2023/03/18 10:52:17;;;;;;;14.75;9.88;;;;;;;6.23;61.59;64388.38;4956274;28;20042;-79
2023/03/18 10:54:49;;;;;;;19.73;9.77;;;;;;;6.36;61.00;64402.41;4956139;28;20494;-80
2023/03/18 10:57:16;;;;;;;19.38;9.80;;;;;;;6.25;61.21;64390.63;4957023;28;20066;-83
2023/03/18 10:59:44;;;;;;;14.02;10.57;;;;;;;6.03;61.94;64366.53;4972642;28;20050;-81
2023/03/18 11:02:33;;;;;;;15.23;9.23;;;;;;;5.91;62.07;64353.09;4972594;28;20039;-80
2023/03/18 11:05:03;;;;;;;13.48;9.13;;;;;;;6.07;61.76;64371.03;4972664;28;20126;-80
2023/03/18 11:07:29;;;;;;;11.73;9.25;;;;;;;6.20;61.68;64385.03;4955824;28;20050;-81
2023/03/18 11:10:23;;;;;;;10.43;8.45;;;;;;;5.79;62.48;64339.63;4971463;28;20485;-79
2023/03/18 11:12:49;;;;;;;13.05;7.97;;;;;;;5.59;63.04;64317.78;4973508;28;20128;-79
2023/03/18 11:15:19;;;;;;;11.50;8.18;;;;;;;5.32;63.83;64288.69;4971950;28;20046;-80
2023/03/18 11:17:51;;;;;;;13.10;7.95;;;;;;;5.38;63.75;64294.28;4972937;28;20457;-80
2023/03/18 11:20:43;;;;;;;10.48;7.95;;;;;;;5.32;64.05;64288.13;4973795;28;20057;-82
2023/03/18 11:23:19;;;;;;;11.90;7.70;;;;;;;5.34;63.79;64290.94;4972082;28;20054;-80
2023/03/18 11:25:47;;;;;;;11.68;7.85;;;;;;;5.36;64.23;64293.16;4973453;28;20133;-80
2023/03/18 11:28:22;;;;;;;17.23;7.95;;;;;;;5.41;63.96;64297.63;4972320;28;20117;-80
2023/03/18 11:30:51;;;;;;;11.07;8.43;;;;;;;5.41;63.83;64298.19;4972055;28;20064;-83
2023/03/18 11:33:18;;;;;;;11.70;7.88;;;;;;;5.56;63.37;64315.00;4973422;28;20053;-81
2023/03/18 11:35:50;;;;;;;13.77;7.78;;;;;;;5.65;63.22;64324.53;4971940;28;20058;-81
2023/03/18 11:38:31;;;;;;;12.20;7.90;;;;;;;5.49;63.36;64307.16;4972037;28;20043;-81
2023/03/18 11:41:24;;;;;;;8.60;7.13;;;;;;;5.56;63.13;64315.00;4957111;28;20094;-83
2023/03/18 11:43:59;;;;;;;10.20;7.90;;;;;;;5.52;63.57;64309.94;4990570;28;20145;-80
2023/03/18 11:46:39;;;;;;;8.95;7.72;;;;;;;5.27;64.10;64283.09;4976083;28;20053;-78
2023/03/18 11:49:08;;;;;;;9.88;7.63;;;;;;;5.39;63.89;64295.97;4976237;28;20043;-80
2023/03/18 11:51:44;;;;;;;8.98;7.75;;;;;;;5.59;63.63;64317.78;4975128;28;20039;-80